Indian Springs, Nevada Weather observations

Data are for observation ending at time listed.
 Day   Time    Ave.   Ave.  Ave.  Vector   Max.   Stn.    Total    Solar   Ave.  
  of    of     Air    Rel.  Wind   Wind    Wind   Baro.  Precip.   Rad.    Soil  
Year   Day     Temp.  Hum.  Speed  Dir.    Gust   Pres.                    Temp. 
2015   (PST)    F      %     mph   deg.    mph     mb.     in.     W/m2     F   
------------------------------------------------------------------------------
 209    6:00   72.7    18    0.5   242      1.8   905.7    0.00     195    86.1
 209    6:10   73.9    17    0.8   210      1.6   905.9    0.00     232    85.9
 209    6:20   76.2    17    0.2   217      1.2   906.2    0.00     270    85.8
 209    6:30   79.2    16    0.0     7      0.4   906.5    0.00     315    85.7
 209    6:40   82.1    14    0.2    93      1.2   906.8    0.00     345    85.7
 209    6:50   81.7    16    0.5    99      1.7   907.1    0.00     379    85.6
 209    7:00   83.4    15    0.3    21      1.8   907.3    0.00     424    85.6
 209    7:10   83.2    14    0.6   339      1.8   907.6    0.00     456    85.6
 209    7:20   83.6    12    0.5    22      2.2   907.9    0.00     491    85.7
 209    7:30   83.1    13    1.0   329      2.3   908.1    0.00     522    85.8
 209    7:40   83.7    13    0.8   342      2.3   908.3    0.00     557    85.9
 209    7:50   84.0    13    1.3   311      2.9   908.5    0.00     586    86.1
 209    8:00   84.9    13    1.5    24      3.7   908.6    0.00     627    86.3
 209    8:10   85.9    13    1.7    53      4.1   908.8    0.00     658    86.5
 209    8:20   85.2    14    2.4    60      5.4   908.8    0.00     695    86.7
 209    8:30   85.8    13    1.9    26      4.4   908.9    0.00     725    87.0
 209    8:40   85.8    13    1.8    71      5.1   909.0    0.00     749    87.2
 209    8:50   86.8    13    1.5    28      5.6   909.0    0.00     774    87.5
 209    9:00   86.5    13    2.1    36      4.7   909.1    0.00     801    87.8
 209    9:10   87.6    13    1.5    17      4.6   909.2    0.00     825    88.2
 209    9:20   87.2    13    2.2    20      5.1   909.3    0.00     853    88.5
 209    9:30   88.0    13    1.7   356      4.0   909.3    0.00     871    88.9
 209    9:40   88.2    12    1.8   358      5.0   909.4    0.00     895    89.3
 209    9:50   88.6    12    3.0    39      6.1   909.4    0.00     915    89.8
 209   10:00   89.5    12    1.9    26      6.3   909.4    0.00     924    90.2
 209   10:10   89.5    12    4.0    52      9.1   909.4    0.00     952    90.6
 209   10:20   90.2    12    3.1    79      8.4   909.4    0.00     963    91.1
 209   10:30   90.4    12    3.5   116      8.0   909.4    0.00     979    91.5
 209   10:40   91.1    12    4.4    85     10.5   909.4    0.00     992    92.0
 209   10:50   91.2    12    4.1    65      8.7   909.5    0.00    1008    92.5
 209   11:00   91.3    12    5.1    84     10.7   909.4    0.00    1015    93.0
 209   11:10   91.8    11    4.6    78     11.6   909.4    0.00    1015    93.5
 209   11:20   91.7    11    4.1    89     10.2   909.3    0.00    1028    93.9
 209   11:30   92.4    11    4.9    65     10.7   909.3    0.00    1036    94.4
 209   11:40   92.5    11    4.3    80      9.0   909.3    0.00    1037    94.9
 209   11:50   92.4    11    4.4    61     12.6   909.2    0.00    1039    95.4
 209   12:00   93.0    11    3.7    43     10.4   909.2    0.00    1035    95.8
 209   12:10   93.7    11    4.3    54     10.1   909.1    0.00    1034    96.3
 209   12:20   93.6    10    4.7    65     10.3   909.1    0.00    1026    96.7
 209   12:30   94.2    10    2.3   150      6.7   909.0    0.00    1022    97.2
 209   12:40   94.5    10    3.0    94      7.9   908.8    0.00    1009    97.6
 209   12:50   94.4    10    3.5    67      9.0   908.7    0.00     988    98.0
 209   13:00   95.0    10    3.2    53      6.5   908.6    0.00     960    98.5
 209   13:10   95.4    10    1.8     9      4.4   908.5    0.00     951    98.9
 209   13:20   95.6    10    2.8    84      8.6   908.4    0.00     933    99.3
 209   13:30   95.3    10    2.9    44      6.9   908.3    0.00     937    99.8
 209   13:40   95.9     9    1.5   140      4.2   908.2    0.00     476    100.2
 209   13:50   96.0     9    2.6    54      9.0   908.1    0.00     365    100.5
 209   14:00   95.9     9    2.4   360      5.6   908.0    0.00     662    101.0
 209   14:10   96.3     9    3.8    46      8.3   907.9    0.00     857    101.3
 209   14:20   96.5    10    2.4    16      5.4   907.8    0.00     843    101.6
 209   14:30   96.5    10    2.4    18      5.3   907.7    0.00     721    101.9
 209   14:40   96.5     9    3.7    80      7.4   907.6    0.00     806    102.1
 209   14:50   96.4     9    4.0    74      9.9   907.5    0.00     779    102.3
 209   15:00   96.1     9    3.7    74      8.5   907.5    0.00     756    102.5
 209   15:10   96.3     9    1.5    41      6.2   907.4    0.00     727    102.7
 209   15:20   96.5     9    2.6    34      5.8   907.2    0.00     615    102.9
 209   15:30   96.8     9    3.2    33      7.7   907.2    0.00     652    103.1
 209   15:40   97.3     9    3.4    92      8.3   907.2    0.00     634    103.3
 209   15:50   96.2     9    2.7   262      5.3   907.2    0.00     602    103.5
 209   16:00   96.5     9    2.0   326      6.6   907.1    0.00     575    103.6
 209   16:10   96.9     9    3.1    31      7.6   907.0    0.00     535    103.8
 209   16:20   96.9     9    2.7    28      5.8   907.0    0.00     503    103.9
 209   16:30   97.3     9    2.0   281      5.2   906.8    0.00     467    104.0
 209   16:40   96.4     9    1.3   162      3.3   906.8    0.00     428    104.1
 209   16:50   96.6     9    1.4   256      5.3   906.6    0.00     394    104.1
 209   17:00   96.4     9    2.5   227      4.8   906.4    0.00     303    104.1
 209   17:10   96.2     9    3.4    70      8.5   906.2    0.00     100    104.1
 209   17:20   95.4     9    2.7    87      5.1   906.2    0.00     268    104.0
 209   17:30   95.7     9    1.9    75      4.7   906.1    0.00     154    103.8
 209   17:40   96.0     9    1.4    29      3.0   906.1    0.00      97    103.7
 209   17:50   95.8     9    1.7   183      4.2   906.0    0.00     188    103.5
 209   18:00   96.3    10    1.3   103      3.1   906.1    0.00     155    103.3
 209   18:10   95.8     9    1.6   166      3.8   906.1    0.00     123    103.1
 209   18:20   95.3    10    1.5   146      3.1   906.1    0.00      87    102.8
 209   18:30   94.6    10    0.5   110      1.8   906.1    0.00      54    102.6
 209   18:40   93.5    11    0.9   101      3.4   906.1    0.00      31    102.3
 209   18:50   92.3    11    0.3   135      1.4   906.0    0.00      11    102.1
 209   19:00   90.7    12    0.1   118      1.5   905.9    0.00       5    101.8
 209   19:10   89.3    13    0.0   125      0.7   905.8    0.00       2    101.6
 209   19:20   88.3    13    0.1   141      0.8   905.7    0.00       0    101.3
 209   19:30   87.5    13    0.1   147      0.6   905.7    0.00       0    101.1
 209   19:40   86.8    14    0.2   143      1.1   905.7    0.00       0    100.8
 209   19:50   86.9    14    0.5   199      2.0   905.7    0.00       0    100.5
 209   20:00   88.3    12    2.1   192      4.0   905.7    0.00       0    100.2
 209   20:10   89.7    11    3.0   199      5.7   905.8    0.00       0    99.9
 209   20:20   89.9    11    3.3   222      6.7   906.0    0.00       0    99.6
 209   20:30   89.0    12    2.2   282      4.8   906.3    0.00       0    99.4
 209   20:40   88.2    12    2.0   270      3.9   906.4    0.00       0    99.1
 209   20:50   88.4    12    1.4   264      3.6   906.5    0.00       0    98.8
 209   21:00   88.3    12    1.0   336      3.3   906.6    0.00       0    98.5
 209   21:10   85.2    14    0.6    20      2.0   906.7    0.00       0    98.2
 209   21:20   84.7    13    1.3   342      2.8   906.7    0.00       0    98.0
 209   21:30   86.2    13    1.8   326      5.1   906.6    0.00       0    97.8
 209   21:40   85.7    13    2.5   328      5.0   906.6    0.00       0    97.5
 209   21:50   85.5    12    3.0   304      5.5   906.7    0.00       0    97.2
 209   22:00   85.9    12    1.8   263      3.2   906.7    0.00       0    97.0
 209   22:10   84.6    13    1.2   105      4.6   906.9    0.00       0    96.7
 209   22:20   82.6    14    0.6    61      3.4   906.9    0.00       0    96.5
 209   22:30   81.7    14    0.4    36      1.8   906.9    0.00       0    96.2
 209   22:40   81.1    15    1.0    44      1.9   906.7    0.00       0    96.0
 209   22:50   80.6    16    0.3   242      1.6   906.5    0.00       0    95.8
 209   23:00   80.9    16    1.1   303      2.2   906.5    0.00       0    95.5
 209   23:10   79.9    17    0.3   191      1.3   906.6    0.00       0    95.3
 209   23:20   78.7    17    0.8   217      1.8   906.5    0.00       0    95.1
 209   23:30   79.1    17    0.6   268      2.9   906.5    0.00       0    94.8
 209   23:40   79.4    16    0.9   306      2.3   906.5    0.00       0    94.6
 209   23:50   79.4    16    1.2   273      2.6   906.3    0.00       0    94.4
 210    0:00   79.1    16    0.7   228      3.4   906.4    0.00       0    94.1
 210    0:10   77.8    18    0.7    46      3.1   906.4    0.00       0    93.9
 210    0:20   76.2    20    0.9    88      1.9   906.3    0.00       0    93.7
 210    0:30   75.1    20    0.4   153      1.1   906.2    0.00       0    93.5
 210    0:40   75.2    20    0.5   206      1.2   906.1    0.00       0    93.3
 210    0:50   75.2    21    0.7   206      1.6   906.1    0.00       0    93.1
 210    1:00   76.0    19    0.6   232      2.0   906.1    0.00       0    92.9
 210    1:10   75.8    19    0.6   279      1.5   905.9    0.00       0    92.7
 210    1:20   74.8    19    0.9   214      2.3   906.0    0.00       0    92.4
 210    1:30   74.0    21    0.4   192      1.8   906.0    0.00       0    92.2
 210    1:40   73.0    23    0.2    27      1.5   905.8    0.00       0    92.0
 210    1:50   72.6    23    0.4   310      1.4   905.8    0.00       0    91.8
 210    2:00   72.9    22    0.3   300      1.2   905.8    0.00       0    91.6
 210    2:10   71.8    23    0.1   283      1.5   905.8    0.00       0    91.4
 210    2:20   72.0    22    0.7   237      1.9   905.9    0.00       0    91.2
 210    2:30   71.6    22    0.6   240      1.8   905.9    0.00       0    91.0
 210    2:40   71.8    21    0.8   223      1.5   905.9    0.00       0    90.8
 210    2:50   71.0    23    0.4   204      1.5   906.0    0.00       0    90.6
 210    3:00   70.3    24    0.5   150      2.0   906.1    0.00       0    90.4
 210    3:10   70.2    24    0.0     0      0.0   906.1    0.00       0    90.2
 210    3:20   70.8    24    0.6   212      1.3   905.9    0.00       0    90.1
 210    3:30   71.7    22    1.0   224      2.3   906.0    0.00       0    89.9
 210    3:40   72.2    20    1.4   226      3.0   906.1    0.00       0    89.6
 210    3:50   73.5    18    1.2   240      2.0   906.2    0.00       0    89.5
 210    4:00   73.1    20    0.4   331      1.5   906.3    0.00       0    89.3
 210    4:10   71.0    25    0.8   354      2.9   906.4    0.00       0    89.1
 210    4:20   68.9    26    0.4    81      1.8   906.4    0.00       0    88.9
 210    4:30   68.0    27    0.6   129      2.0   906.5    0.00       0    88.8
 210    4:40   67.6    28    0.4   102      1.8   906.5    0.00       1    88.6
 210    4:50   67.0    29    0.7    69      1.8   906.6    0.00       3    88.4
 210    5:00   66.9    28    0.1   106      1.2   906.5    0.00       6    88.2
 210    5:10   67.8    26    0.3   127      1.2   906.6    0.00      18    88.1
 210    5:20   69.2    25    0.6    94      2.0   906.8    0.00      42    87.9
 210    5:30   70.4    24    0.3    95      2.0   907.0    0.00      75    87.7
 210    5:40   72.9    22    0.1    88      0.9   907.2    0.00     115    87.5
 210    5:50   75.2    21    0.0    50      0.8   907.5    0.00     152    87.2

Return to Indian Springs, Nevada graphs page.


Western Regional Climate Center,wrcc@dri.edu